sensor_id;sensor_type;location;lat;lon;timestamp;temperature;humidity
62991;DHT22;49084;48.204;16.202;2023-02-21T00:01:40;11.40;90.20
62991;DHT22;49084;48.204;16.202;2023-02-21T00:04:24;11.30;90.50
62991;DHT22;49084;48.204;16.202;2023-02-21T00:07:09;11.20;90.60
62991;DHT22;49084;48.204;16.202;2023-02-21T00:09:52;11.30;90.80
62991;DHT22;49084;48.204;16.202;2023-02-21T00:12:36;11.20;90.90
62991;DHT22;49084;48.204;16.202;2023-02-21T00:15:20;11.20;91.00
62991;DHT22;49084;48.204;16.202;2023-02-21T00:18:05;11.20;90.60
62991;DHT22;49084;48.204;16.202;2023-02-21T00:20:49;11.30;90.40
62991;DHT22;49084;48.204;16.202;2023-02-21T00:23:36;11.40;90.00
62991;DHT22;49084;48.204;16.202;2023-02-21T00:26:21;11.50;89.30
62991;DHT22;49084;48.204;16.202;2023-02-21T00:29:06;11.50;89.20
62991;DHT22;49084;48.204;16.202;2023-02-21T00:31:51;11.50;89.00
62991;DHT22;49084;48.204;16.202;2023-02-21T00:34:36;11.50;88.90
62991;DHT22;49084;48.204;16.202;2023-02-21T00:37:20;11.50;88.90
62991;DHT22;49084;48.204;16.202;2023-02-21T00:40:05;11.40;89.20
62991;DHT22;49084;48.204;16.202;2023-02-21T00:42:49;11.40;89.30
62991;DHT22;49084;48.204;16.202;2023-02-21T00:45:33;11.30;89.60
62991;DHT22;49084;48.204;16.202;2023-02-21T00:48:23;11.30;89.60
62991;DHT22;49084;48.204;16.202;2023-02-21T00:51:09;11.30;90.00
62991;DHT22;49084;48.204;16.202;2023-02-21T00:53:53;11.20;90.10
62991;DHT22;49084;48.204;16.202;2023-02-21T00:56:38;11.30;90.00
62991;DHT22;49084;48.204;16.202;2023-02-21T00:59:22;11.30;89.70
62991;DHT22;49084;48.204;16.202;2023-02-21T01:02:06;11.30;89.30
62991;DHT22;49084;48.204;16.202;2023-02-21T01:04:51;11.30;89.30
62991;DHT22;49084;48.204;16.202;2023-02-21T01:07:35;11.20;89.60
62991;DHT22;49084;48.204;16.202;2023-02-21T01:10:20;11.20;89.80
62991;DHT22;49084;48.204;16.202;2023-02-21T01:13:04;11.20;89.00
62991;DHT22;49084;48.204;16.202;2023-02-21T01:15:48;11.20;89.40
62991;DHT22;49084;48.204;16.202;2023-02-21T01:18:32;11.10;89.20
62991;DHT22;49084;48.204;16.202;2023-02-21T01:21:17;11.10;89.50
62991;DHT22;49084;48.204;16.202;2023-02-21T01:24:02;11.10;89.50
62991;DHT22;49084;48.204;16.202;2023-02-21T01:26:47;11.00;90.00
62991;DHT22;49084;48.204;16.202;2023-02-21T01:29:31;10.90;90.40
62991;DHT22;49084;48.204;16.202;2023-02-21T01:32:15;10.90;90.30
62991;DHT22;49084;48.204;16.202;2023-02-21T01:34:59;10.90;90.20
62991;DHT22;49084;48.204;16.202;2023-02-21T01:37:43;10.90;90.10
62991;DHT22;49084;48.204;16.202;2023-02-21T01:40:27;10.90;90.00
62991;DHT22;49084;48.204;16.202;2023-02-21T01:43:17;10.90;90.10
62991;DHT22;49084;48.204;16.202;2023-02-21T01:46:01;11.00;89.70
62991;DHT22;49084;48.204;16.202;2023-02-21T01:48:46;10.90;89.80
62991;DHT22;49084;48.204;16.202;2023-02-21T01:51:36;11.00;89.30
62991;DHT22;49084;48.204;16.202;2023-02-21T01:54:21;11.00;89.80
62991;DHT22;49084;48.204;16.202;2023-02-21T01:57:07;10.90;89.30
62991;DHT22;49084;48.204;16.202;2023-02-21T01:59:54;10.90;89.30
62991;DHT22;49084;48.204;16.202;2023-02-21T02:02:59;10.90;89.30
62991;DHT22;49084;48.204;16.202;2023-02-21T02:05:48;10.90;89.50
62991;DHT22;49084;48.204;16.202;2023-02-21T02:08:33;10.80;89.40
62991;DHT22;49084;48.204;16.202;2023-02-21T02:14:52;10.90;88.60
62991;DHT22;49084;48.204;16.202;2023-02-21T02:22:45;10.70;89.60
62991;DHT22;49084;48.204;16.202;2023-02-21T02:37:01;11.00;90.70
62991;DHT22;49084;48.204;16.202;2023-02-21T02:42:32;10.90;90.80
62991;DHT22;49084;48.204;16.202;2023-02-21T02:45:12;10.90;90.10
62991;DHT22;49084;48.204;16.202;2023-02-21T02:47:42;10.90;90.20
62991;DHT22;49084;48.204;16.202;2023-02-21T02:50:09;10.90;90.00
62991;DHT22;49084;48.204;16.202;2023-02-21T02:52:36;10.80;90.10
62991;DHT22;49084;48.204;16.202;2023-02-21T02:57:54;10.90;89.50
62991;DHT22;49084;48.204;16.202;2023-02-21T03:00:20;10.90;89.10
62991;DHT22;49084;48.204;16.202;2023-02-21T03:06:02;10.90;89.00
62991;DHT22;49084;48.204;16.202;2023-02-21T03:08:52;10.90;88.40
62991;DHT22;49084;48.204;16.202;2023-02-21T03:11:21;10.60;90.00
62991;DHT22;49084;48.204;16.202;2023-02-21T03:14:37;10.40;90.20
62991;DHT22;49084;48.204;16.202;2023-02-21T03:16:47;10.30;90.60
62991;DHT22;49084;48.204;16.202;2023-02-21T03:19:32;10.20;90.70
62991;DHT22;49084;48.204;16.202;2023-02-21T03:22:06;10.20;90.80
62991;DHT22;49084;48.204;16.202;2023-02-21T03:24:33;10.20;91.10
62991;DHT22;49084;48.204;16.202;2023-02-21T03:27:03;10.20;91.00
62991;DHT22;49084;48.204;16.202;2023-02-21T03:29:31;10.20;91.00
62991;DHT22;49084;48.204;16.202;2023-02-21T03:32:23;10.10;91.10
62991;DHT22;49084;48.204;16.202;2023-02-21T03:34:49;10.10;91.10
62991;DHT22;49084;48.204;16.202;2023-02-21T03:39:46;10.00;91.40
62991;DHT22;49084;48.204;16.202;2023-02-21T03:42:12;10.00;91.40
62991;DHT22;49084;48.204;16.202;2023-02-21T03:44:37;10.00;91.40
62991;DHT22;49084;48.204;16.202;2023-02-21T03:47:03;9.90;91.60
62991;DHT22;49084;48.204;16.202;2023-02-21T03:49:29;9.90;91.60
62991;DHT22;49084;48.204;16.202;2023-02-21T03:51:54;10.00;91.60
62991;DHT22;49084;48.204;16.202;2023-02-21T03:54:20;9.90;91.60
62991;DHT22;49084;48.204;16.202;2023-02-21T03:56:46;9.90;91.60
62991;DHT22;49084;48.204;16.202;2023-02-21T03:59:11;9.90;91.60
62991;DHT22;49084;48.204;16.202;2023-02-21T04:01:37;9.90;91.60
62991;DHT22;49084;48.204;16.202;2023-02-21T04:04:02;9.90;91.60
62991;DHT22;49084;48.204;16.202;2023-02-21T04:06:28;9.90;91.60
62991;DHT22;49084;48.204;16.202;2023-02-21T04:08:54;9.90;91.70
62991;DHT22;49084;48.204;16.202;2023-02-21T04:11:20;9.90;91.80
62991;DHT22;49084;48.204;16.202;2023-02-21T04:13:46;9.90;91.60
62991;DHT22;49084;48.204;16.202;2023-02-21T04:16:12;9.90;91.70
62991;DHT22;49084;48.204;16.202;2023-02-21T04:18:38;9.90;91.80
62991;DHT22;49084;48.204;16.202;2023-02-21T04:21:03;9.90;91.80
62991;DHT22;49084;48.204;16.202;2023-02-21T04:23:29;9.90;91.80
62991;DHT22;49084;48.204;16.202;2023-02-21T04:25:55;9.90;91.90
62991;DHT22;49084;48.204;16.202;2023-02-21T04:28:20;9.90;91.90
62991;DHT22;49084;48.204;16.202;2023-02-21T04:30:46;9.90;92.10
62991;DHT22;49084;48.204;16.202;2023-02-21T04:33:11;9.80;92.10
62991;DHT22;49084;48.204;16.202;2023-02-21T04:35:37;9.80;92.20
62991;DHT22;49084;48.204;16.202;2023-02-21T04:38:03;9.80;92.10
62991;DHT22;49084;48.204;16.202;2023-02-21T04:40:28;9.80;92.20
62991;DHT22;49084;48.204;16.202;2023-02-21T04:42:54;9.80;92.40
62991;DHT22;49084;48.204;16.202;2023-02-21T04:45:20;9.80;92.40
62991;DHT22;49084;48.204;16.202;2023-02-21T04:47:45;9.80;92.70
62991;DHT22;49084;48.204;16.202;2023-02-21T04:50:11;9.70;92.80
62991;DHT22;49084;48.204;16.202;2023-02-21T04:52:37;9.70;92.90
62991;DHT22;49084;48.204;16.202;2023-02-21T04:55:06;9.70;92.90
62991;DHT22;49084;48.204;16.202;2023-02-21T04:57:31;9.70;93.10
62991;DHT22;49084;48.204;16.202;2023-02-21T04:59:58;9.70;93.00
62991;DHT22;49084;48.204;16.202;2023-02-21T05:02:25;9.70;93.10
62991;DHT22;49084;48.204;16.202;2023-02-21T05:04:51;9.70;93.10
62991;DHT22;49084;48.204;16.202;2023-02-21T05:07:17;9.70;93.20
62991;DHT22;49084;48.204;16.202;2023-02-21T05:09:42;9.70;93.30
62991;DHT22;49084;48.204;16.202;2023-02-21T05:12:08;9.70;93.30
62991;DHT22;49084;48.204;16.202;2023-02-21T05:14:39;9.70;93.40
62991;DHT22;49084;48.204;16.202;2023-02-21T05:17:05;9.70;93.40
62991;DHT22;49084;48.204;16.202;2023-02-21T05:19:31;9.70;93.20
62991;DHT22;49084;48.204;16.202;2023-02-21T05:21:59;9.60;93.50
62991;DHT22;49084;48.204;16.202;2023-02-21T05:24:27;9.60;93.50
62991;DHT22;49084;48.204;16.202;2023-02-21T05:26:54;9.60;93.60
62991;DHT22;49084;48.204;16.202;2023-02-21T05:29:20;9.60;93.60
62991;DHT22;49084;48.204;16.202;2023-02-21T05:31:46;9.60;93.40
62991;DHT22;49084;48.204;16.202;2023-02-21T05:34:12;9.60;93.20
62991;DHT22;49084;48.204;16.202;2023-02-21T05:36:39;9.60;93.20
62991;DHT22;49084;48.204;16.202;2023-02-21T05:39:05;9.60;93.40
62991;DHT22;49084;48.204;16.202;2023-02-21T05:41:31;9.60;93.40
62991;DHT22;49084;48.204;16.202;2023-02-21T05:43:57;9.60;93.40
62991;DHT22;49084;48.204;16.202;2023-02-21T05:46:28;9.50;93.70
62991;DHT22;49084;48.204;16.202;2023-02-21T05:48:55;9.50;93.60
62991;DHT22;49084;48.204;16.202;2023-02-21T05:51:21;9.50;93.60
62991;DHT22;49084;48.204;16.202;2023-02-21T05:53:47;9.40;93.80
62991;DHT22;49084;48.204;16.202;2023-02-21T05:56:16;9.40;93.90
62991;DHT22;49084;48.204;16.202;2023-02-21T05:58:41;9.40;94.10
62991;DHT22;49084;48.204;16.202;2023-02-21T06:01:07;9.30;94.30
62991;DHT22;49084;48.204;16.202;2023-02-21T06:03:33;9.30;94.40
62991;DHT22;49084;48.204;16.202;2023-02-21T06:05:59;9.30;94.50
62991;DHT22;49084;48.204;16.202;2023-02-21T06:08:25;9.30;94.70
62991;DHT22;49084;48.204;16.202;2023-02-21T06:10:50;9.30;94.70
62991;DHT22;49084;48.204;16.202;2023-02-21T06:13:16;9.30;94.90
62991;DHT22;49084;48.204;16.202;2023-02-21T06:15:42;9.30;95.10
62991;DHT22;49084;48.204;16.202;2023-02-21T06:18:08;9.30;95.10
62991;DHT22;49084;48.204;16.202;2023-02-21T06:20:34;9.30;95.10
62991;DHT22;49084;48.204;16.202;2023-02-21T06:22:59;9.30;95.20
62991;DHT22;49084;48.204;16.202;2023-02-21T06:25:25;9.20;95.40
62991;DHT22;49084;48.204;16.202;2023-02-21T06:27:51;9.20;95.50
62991;DHT22;49084;48.204;16.202;2023-02-21T06:30:16;9.20;95.70
62991;DHT22;49084;48.204;16.202;2023-02-21T06:32:42;9.30;95.60
62991;DHT22;49084;48.204;16.202;2023-02-21T06:35:08;9.20;95.70
62991;DHT22;49084;48.204;16.202;2023-02-21T06:37:34;9.20;95.90
62991;DHT22;49084;48.204;16.202;2023-02-21T06:40:00;9.20;96.00
62991;DHT22;49084;48.204;16.202;2023-02-21T06:42:25;9.20;96.10
62991;DHT22;49084;48.204;16.202;2023-02-21T06:44:51;9.20;96.30
62991;DHT22;49084;48.204;16.202;2023-02-21T06:47:17;9.10;96.50
62991;DHT22;49084;48.204;16.202;2023-02-21T06:49:42;9.10;96.80
62991;DHT22;49084;48.204;16.202;2023-02-21T06:52:09;9.10;97.10
62991;DHT22;49084;48.204;16.202;2023-02-21T06:54:35;9.10;97.10
62991;DHT22;49084;48.204;16.202;2023-02-21T06:57:00;9.10;97.40
62991;DHT22;49084;48.204;16.202;2023-02-21T06:59:27;9.10;97.40
62991;DHT22;49084;48.204;16.202;2023-02-21T07:01:54;9.10;97.50
62991;DHT22;49084;48.204;16.202;2023-02-21T07:04:19;9.20;97.50
62991;DHT22;49084;48.204;16.202;2023-02-21T07:06:45;9.20;97.50
62991;DHT22;49084;48.204;16.202;2023-02-21T07:09:11;9.20;97.60
62991;DHT22;49084;48.204;16.202;2023-02-21T07:11:37;9.30;97.50
62991;DHT22;49084;48.204;16.202;2023-02-21T07:14:03;9.30;97.30
62991;DHT22;49084;48.204;16.202;2023-02-21T07:16:29;9.30;97.40
62991;DHT22;49084;48.204;16.202;2023-02-21T07:18:55;9.30;97.20
62991;DHT22;49084;48.204;16.202;2023-02-21T07:21:21;9.70;96.20
62991;DHT22;49084;48.204;16.202;2023-02-21T07:23:47;9.70;96.40
62991;DHT22;49084;48.204;16.202;2023-02-21T07:26:14;9.80;96.00
62991;DHT22;49084;48.204;16.202;2023-02-21T07:28:40;10.00;95.60
62991;DHT22;49084;48.204;16.202;2023-02-21T07:31:06;10.10;95.20
62991;DHT22;49084;48.204;16.202;2023-02-21T07:33:32;10.20;94.70
62991;DHT22;49084;48.204;16.202;2023-02-21T07:35:58;10.30;94.30
62991;DHT22;49084;48.204;16.202;2023-02-21T07:38:25;10.40;94.40
62991;DHT22;49084;48.204;16.202;2023-02-21T07:40:56;10.50;93.80
62991;DHT22;49084;48.204;16.202;2023-02-21T07:43:24;10.50;93.80
62991;DHT22;49084;48.204;16.202;2023-02-21T07:45:50;10.70;93.40
62991;DHT22;49084;48.204;16.202;2023-02-21T07:48:15;10.80;93.10
62991;DHT22;49084;48.204;16.202;2023-02-21T07:50:41;10.90;92.90
62991;DHT22;49084;48.204;16.202;2023-02-21T07:53:08;11.10;92.40
62991;DHT22;49084;48.204;16.202;2023-02-21T07:55:34;11.10;92.30
62991;DHT22;49084;48.204;16.202;2023-02-21T07:57:59;11.20;92.10
62991;DHT22;49084;48.204;16.202;2023-02-21T08:00:25;11.20;91.80
62991;DHT22;49084;48.204;16.202;2023-02-21T08:02:51;11.30;91.80
62991;DHT22;49084;48.204;16.202;2023-02-21T08:05:18;11.30;91.80
62991;DHT22;49084;48.204;16.202;2023-02-21T08:07:44;11.40;91.80
62991;DHT22;49084;48.204;16.202;2023-02-21T08:10:11;11.50;91.30
62991;DHT22;49084;48.204;16.202;2023-02-21T08:12:37;11.60;91.10
62991;DHT22;49084;48.204;16.202;2023-02-21T08:15:03;11.80;91.00
62991;DHT22;49084;48.204;16.202;2023-02-21T08:17:30;11.90;90.80
62991;DHT22;49084;48.204;16.202;2023-02-21T08:19:56;12.10;90.20
62991;DHT22;49084;48.204;16.202;2023-02-21T08:22:21;12.20;89.60
62991;DHT22;49084;48.204;16.202;2023-02-21T08:24:50;12.40;88.90
62991;DHT22;49084;48.204;16.202;2023-02-21T08:27:17;12.40;88.70
62991;DHT22;49084;48.204;16.202;2023-02-21T08:29:43;12.50;88.00
62991;DHT22;49084;48.204;16.202;2023-02-21T08:32:09;12.70;87.80
62991;DHT22;49084;48.204;16.202;2023-02-21T08:34:34;12.70;87.80
62991;DHT22;49084;48.204;16.202;2023-02-21T08:37:00;12.90;87.00
62991;DHT22;49084;48.204;16.202;2023-02-21T08:39:26;12.90;85.20
62991;DHT22;49084;48.204;16.202;2023-02-21T08:41:54;13.00;85.50
62991;DHT22;49084;48.204;16.202;2023-02-21T08:44:21;12.80;85.40
62991;DHT22;49084;48.204;16.202;2023-02-21T08:46:47;12.80;85.10
62991;DHT22;49084;48.204;16.202;2023-02-21T08:49:13;12.90;85.60
62991;DHT22;49084;48.204;16.202;2023-02-21T08:51:38;13.00;84.80
62991;DHT22;49084;48.204;16.202;2023-02-21T08:54:05;13.10;83.90
62991;DHT22;49084;48.204;16.202;2023-02-21T08:56:31;13.10;84.20
62991;DHT22;49084;48.204;16.202;2023-02-21T08:58:57;13.30;83.20
62991;DHT22;49084;48.204;16.202;2023-02-21T09:01:23;13.30;83.00
62991;DHT22;49084;48.204;16.202;2023-02-21T09:03:54;13.10;83.60
62991;DHT22;49084;48.204;16.202;2023-02-21T09:06:20;13.30;83.20
62991;DHT22;49084;48.204;16.202;2023-02-21T09:08:45;13.20;82.90
62991;DHT22;49084;48.204;16.202;2023-02-21T09:11:11;13.20;83.30
62991;DHT22;49084;48.204;16.202;2023-02-21T09:13:37;12.90;84.10
62991;DHT22;49084;48.204;16.202;2023-02-21T09:16:03;13.30;83.80
62991;DHT22;49084;48.204;16.202;2023-02-21T09:18:30;13.60;81.60
62991;DHT22;49084;48.204;16.202;2023-02-21T09:20:56;13.80;81.30
62991;DHT22;49084;48.204;16.202;2023-02-21T09:23:25;14.10;79.50
62991;DHT22;49084;48.204;16.202;2023-02-21T09:25:51;14.30;78.40
62991;DHT22;49084;48.204;16.202;2023-02-21T09:28:17;14.50;78.20
62991;DHT22;49084;48.204;16.202;2023-02-21T09:30:43;14.60;76.20
62991;DHT22;49084;48.204;16.202;2023-02-21T09:33:10;14.80;76.20
62991;DHT22;49084;48.204;16.202;2023-02-21T09:35:35;15.00;75.60
62991;DHT22;49084;48.204;16.202;2023-02-21T09:38:02;15.30;73.70
62991;DHT22;49084;48.204;16.202;2023-02-21T09:40:53;15.70;72.40
62991;DHT22;49084;48.204;16.202;2023-02-21T09:43:42;15.80;71.00
62991;DHT22;49084;48.204;16.202;2023-02-21T09:46:13;16.10;70.40
62991;DHT22;49084;48.204;16.202;2023-02-21T09:48:41;16.60;68.00
62991;DHT22;49084;48.204;16.202;2023-02-21T09:51:09;16.70;67.00
62991;DHT22;49084;48.204;16.202;2023-02-21T09:53:38;16.00;68.10
62991;DHT22;49084;48.204;16.202;2023-02-21T09:56:34;15.90;68.20
62991;DHT22;49084;48.204;16.202;2023-02-21T09:59:02;15.70;69.30
62991;DHT22;49084;48.204;16.202;2023-02-21T10:01:35;15.40;69.80
62991;DHT22;49084;48.204;16.202;2023-02-21T10:07:17;15.50;69.50
62991;DHT22;49084;48.204;16.202;2023-02-21T10:09:48;15.40;69.40
62991;DHT22;49084;48.204;16.202;2023-02-21T10:12:26;15.50;69.50
62991;DHT22;49084;48.204;16.202;2023-02-21T10:17:51;15.90;68.80
62991;DHT22;49084;48.204;16.202;2023-02-21T10:20:37;16.10;68.40
62991;DHT22;49084;48.204;16.202;2023-02-21T10:23:16;16.50;67.60
62991;DHT22;49084;48.204;16.202;2023-02-21T10:25:44;16.50;66.10
62991;DHT22;49084;48.204;16.202;2023-02-21T10:28:22;16.30;66.80
62991;DHT22;49084;48.204;16.202;2023-02-21T10:30:51;16.10;67.40
62991;DHT22;49084;48.204;16.202;2023-02-21T10:33:19;16.30;67.40
62991;DHT22;49084;48.204;16.202;2023-02-21T10:35:44;16.20;67.60
62991;DHT22;49084;48.204;16.202;2023-02-21T10:38:16;16.10;68.00
62991;DHT22;49084;48.204;16.202;2023-02-21T10:43:12;16.00;68.30
62991;DHT22;49084;48.204;16.202;2023-02-21T10:45:41;16.40;67.70
62991;DHT22;49084;48.204;16.202;2023-02-21T10:48:10;16.10;68.00
62991;DHT22;49084;48.204;16.202;2023-02-21T10:53:09;16.10;68.10
62991;DHT22;49084;48.204;16.202;2023-02-21T10:59:02;16.40;67.90
62991;DHT22;49084;48.204;16.202;2023-02-21T11:01:42;16.90;66.40
62991;DHT22;49084;48.204;16.202;2023-02-21T11:04:30;17.10;65.50
62991;DHT22;49084;48.204;16.202;2023-02-21T11:07:05;17.70;64.40
62991;DHT22;49084;48.204;16.202;2023-02-21T11:09:35;17.70;63.90
62991;DHT22;49084;48.204;16.202;2023-02-21T11:12:21;17.50;63.90
62991;DHT22;49084;48.204;16.202;2023-02-21T11:17:19;17.80;64.30
62991;DHT22;49084;48.204;16.202;2023-02-21T11:22:15;17.80;64.80
62991;DHT22;49084;48.204;16.202;2023-02-21T11:27:37;17.70;64.60
62991;DHT22;49084;48.204;16.202;2023-02-21T11:30:15;18.00;63.60
62991;DHT22;49084;48.204;16.202;2023-02-21T11:32:42;17.80;63.10
62991;DHT22;49084;48.204;16.202;2023-02-21T11:40:49;17.50;64.60
62991;DHT22;49084;48.204;16.202;2023-02-21T11:43:25;17.70;63.90
62991;DHT22;49084;48.204;16.202;2023-02-21T11:46:05;17.70;64.00
62991;DHT22;49084;48.204;16.202;2023-02-21T11:48:41;18.40;62.60
62991;DHT22;49084;48.204;16.202;2023-02-21T11:54:03;17.80;63.30
62991;DHT22;49084;48.204;16.202;2023-02-21T11:57:01;17.60;64.00
62991;DHT22;49084;48.204;16.202;2023-02-21T12:12:30;18.20;62.80
62991;DHT22;49084;48.204;16.202;2023-02-21T12:15:19;18.50;62.60
62991;DHT22;49084;48.204;16.202;2023-02-21T12:27:00;19.00;61.10
62991;DHT22;49084;48.204;16.202;2023-02-21T12:32:27;18.50;60.80
62991;DHT22;49084;48.204;16.202;2023-02-21T12:35:09;19.00;60.30
62991;DHT22;49084;48.204;16.202;2023-02-21T12:37:47;18.50;60.50
62991;DHT22;49084;48.204;16.202;2023-02-21T12:40:20;18.10;62.10
62991;DHT22;49084;48.204;16.202;2023-02-21T12:48:15;18.40;61.90
62991;DHT22;49084;48.204;16.202;2023-02-21T12:50:47;18.60;60.80
62991;DHT22;49084;48.204;16.202;2023-02-21T12:56:23;18.60;61.30
62991;DHT22;49084;48.204;16.202;2023-02-21T13:01:27;18.90;59.70
62991;DHT22;49084;48.204;16.202;2023-02-21T13:06:32;18.50;61.00
62991;DHT22;49084;48.204;16.202;2023-02-21T13:09:14;18.00;62.00
62991;DHT22;49084;48.204;16.202;2023-02-21T13:14:14;17.20;65.00
62991;DHT22;49084;48.204;16.202;2023-02-21T13:16:41;17.00;65.40
62991;DHT22;49084;48.204;16.202;2023-02-21T13:19:09;17.40;65.40
62991;DHT22;49084;48.204;16.202;2023-02-21T13:24:47;17.60;64.70
62991;DHT22;49084;48.204;16.202;2023-02-21T13:27:33;17.80;64.30
62991;DHT22;49084;48.204;16.202;2023-02-21T13:32:52;17.90;64.00
62991;DHT22;49084;48.204;16.202;2023-02-21T13:35:24;17.90;63.40
62991;DHT22;49084;48.204;16.202;2023-02-21T13:37:50;17.50;64.10
62991;DHT22;49084;48.204;16.202;2023-02-21T13:40:31;17.30;64.90
62991;DHT22;49084;48.204;16.202;2023-02-21T13:43:15;17.20;65.40
62991;DHT22;49084;48.204;16.202;2023-02-21T13:45:42;17.00;66.30
62991;DHT22;49084;48.204;16.202;2023-02-21T13:55:38;17.10;66.80
62991;DHT22;49084;48.204;16.202;2023-02-21T14:11:19;15.90;70.80
62991;DHT22;49084;48.204;16.202;2023-02-21T14:19:11;15.80;72.10
62991;DHT22;49084;48.204;16.202;2023-02-21T14:21:44;15.40;73.40
62991;DHT22;49084;48.204;16.202;2023-02-21T14:24:16;15.50;74.00
62991;DHT22;49084;48.204;16.202;2023-02-21T14:27:29;15.70;73.60
62991;DHT22;49084;48.204;16.202;2023-02-21T14:32:51;15.40;74.10
62991;DHT22;49084;48.204;16.202;2023-02-21T14:40:40;15.60;74.70
62991;DHT22;49084;48.204;16.202;2023-02-21T14:57:40;15.70;74.90
62991;DHT22;49084;48.204;16.202;2023-02-21T14:59:57;15.90;74.20
62991;DHT22;49084;48.204;16.202;2023-02-21T15:02:32;16.10;73.70
62991;DHT22;49084;48.204;16.202;2023-02-21T15:05:15;16.30;72.70
62991;DHT22;49084;48.204;16.202;2023-02-21T15:10:25;15.90;74.20
62991;DHT22;49084;48.204;16.202;2023-02-21T15:13:00;15.60;74.60
62991;DHT22;49084;48.204;16.202;2023-02-21T15:15:29;15.50;74.20
62991;DHT22;49084;48.204;16.202;2023-02-21T15:17:57;15.50;74.60
62991;DHT22;49084;48.204;16.202;2023-02-21T15:20:24;15.10;75.80
62991;DHT22;49084;48.204;16.202;2023-02-21T15:23:10;15.00;76.40
62991;DHT22;49084;48.204;16.202;2023-02-21T15:25:37;14.90;77.50
62991;DHT22;49084;48.204;16.202;2023-02-21T15:28:05;14.80;78.40
62991;DHT22;49084;48.204;16.202;2023-02-21T15:30:34;14.60;79.30
62991;DHT22;49084;48.204;16.202;2023-02-21T15:33:15;14.50;80.10
62991;DHT22;49084;48.204;16.202;2023-02-21T15:35:54;14.40;80.70
62991;DHT22;49084;48.204;16.202;2023-02-21T15:38:29;14.10;82.00
62991;DHT22;49084;48.204;16.202;2023-02-21T15:41:13;13.90;83.60
62991;DHT22;49084;48.204;16.202;2023-02-21T15:43:45;13.70;85.50
62991;DHT22;49084;48.204;16.202;2023-02-21T15:46:25;13.60;87.50
62991;DHT22;49084;48.204;16.202;2023-02-21T15:48:54;13.50;89.10
62991;DHT22;49084;48.204;16.202;2023-02-21T15:51:21;13.40;90.10
62991;DHT22;49084;48.204;16.202;2023-02-21T15:54:06;13.30;90.60
62991;DHT22;49084;48.204;16.202;2023-02-21T15:56:32;13.20;91.40
62991;DHT22;49084;48.204;16.202;2023-02-21T15:59:25;13.20;91.80
62991;DHT22;49084;48.204;16.202;2023-02-21T16:04:38;13.00;92.80
62991;DHT22;49084;48.204;16.202;2023-02-21T16:07:06;13.00;93.40
62991;DHT22;49084;48.204;16.202;2023-02-21T16:09:39;12.90;93.90
62991;DHT22;49084;48.204;16.202;2023-02-21T16:14:39;12.80;95.00
62991;DHT22;49084;48.204;16.202;2023-02-21T16:19:39;12.70;96.00
62991;DHT22;49084;48.204;16.202;2023-02-21T16:24:41;12.60;97.00
62991;DHT22;49084;48.204;16.202;2023-02-21T16:27:12;12.60;97.90
62991;DHT22;49084;48.204;16.202;2023-02-21T16:29:39;12.60;98.10
62991;DHT22;49084;48.204;16.202;2023-02-21T16:32:05;12.60;99.30
62991;DHT22;49084;48.204;16.202;2023-02-21T16:34:32;12.70;99.90
62991;DHT22;49084;48.204;16.202;2023-02-21T16:37:07;12.60;98.70
62991;DHT22;49084;48.204;16.202;2023-02-21T16:39:35;12.60;98.90
62991;DHT22;49084;48.204;16.202;2023-02-21T16:42:02;12.60;99.10
62991;DHT22;49084;48.204;16.202;2023-02-21T16:44:27;12.60;99.30
62991;DHT22;49084;48.204;16.202;2023-02-21T16:46:54;12.50;99.70
62991;DHT22;49084;48.204;16.202;2023-02-21T16:49:20;12.50;99.90
62991;DHT22;49084;48.204;16.202;2023-02-21T16:51:46;12.50;99.90
62991;DHT22;49084;48.204;16.202;2023-02-21T16:54:12;12.50;99.90
62991;DHT22;49084;48.204;16.202;2023-02-21T16:56:40;12.50;99.90
62991;DHT22;49084;48.204;16.202;2023-02-21T16:59:15;12.50;99.90
62991;DHT22;49084;48.204;16.202;2023-02-21T17:01:44;12.50;99.90
62991;DHT22;49084;48.204;16.202;2023-02-21T17:04:19;12.60;99.90
62991;DHT22;49084;48.204;16.202;2023-02-21T17:07:12;12.60;99.90
62991;DHT22;49084;48.204;16.202;2023-02-21T17:09:39;12.60;99.90
62991;DHT22;49084;48.204;16.202;2023-02-21T17:12:07;12.60;99.90
62991;DHT22;49084;48.204;16.202;2023-02-21T17:14:33;12.60;99.90
62991;DHT22;49084;48.204;16.202;2023-02-21T17:16:59;12.60;99.90
62991;DHT22;49084;48.204;16.202;2023-02-21T17:19:25;12.60;99.90
62991;DHT22;49084;48.204;16.202;2023-02-21T17:21:51;12.50;99.90
62991;DHT22;49084;48.204;16.202;2023-02-21T17:24:17;12.50;99.90
62991;DHT22;49084;48.204;16.202;2023-02-21T17:26:43;12.50;99.90
62991;DHT22;49084;48.204;16.202;2023-02-21T17:29:10;12.50;99.90
62991;DHT22;49084;48.204;16.202;2023-02-21T17:31:37;12.50;99.90
62991;DHT22;49084;48.204;16.202;2023-02-21T17:34:03;12.50;99.90
62991;DHT22;49084;48.204;16.202;2023-02-21T17:36:29;12.50;99.90
62991;DHT22;49084;48.204;16.202;2023-02-21T17:38:55;12.40;99.90
62991;DHT22;49084;48.204;16.202;2023-02-21T17:41:23;12.50;99.90
62991;DHT22;49084;48.204;16.202;2023-02-21T17:43:49;12.40;99.90
62991;DHT22;49084;48.204;16.202;2023-02-21T17:46:17;12.40;99.90
62991;DHT22;49084;48.204;16.202;2023-02-21T17:48:43;12.40;99.90
62991;DHT22;49084;48.204;16.202;2023-02-21T17:51:23;12.30;99.90
62991;DHT22;49084;48.204;16.202;2023-02-21T17:53:51;12.30;99.90
62991;DHT22;49084;48.204;16.202;2023-02-21T17:56:21;12.30;99.90
62991;DHT22;49084;48.204;16.202;2023-02-21T17:58:49;12.20;99.90
62991;DHT22;49084;48.204;16.202;2023-02-21T18:01:17;12.20;99.90
62991;DHT22;49084;48.204;16.202;2023-02-21T18:03:45;12.10;99.90
62991;DHT22;49084;48.204;16.202;2023-02-21T18:06:12;12.00;99.90
62991;DHT22;49084;48.204;16.202;2023-02-21T18:08:38;11.90;99.90
62991;DHT22;49084;48.204;16.202;2023-02-21T18:11:09;11.90;99.90
62991;DHT22;49084;48.204;16.202;2023-02-21T18:13:36;11.80;99.90
62991;DHT22;49084;48.204;16.202;2023-02-21T18:16:02;11.70;99.90
62991;DHT22;49084;48.204;16.202;2023-02-21T18:18:32;11.60;99.90
62991;DHT22;49084;48.204;16.202;2023-02-21T18:20:58;11.50;99.90
62991;DHT22;49084;48.204;16.202;2023-02-21T18:23:31;11.50;99.90
62991;DHT22;49084;48.204;16.202;2023-02-21T18:26:00;11.40;99.90
62991;DHT22;49084;48.204;16.202;2023-02-21T18:28:28;11.30;99.90
62991;DHT22;49084;48.204;16.202;2023-02-21T18:30:54;11.20;99.90
62991;DHT22;49084;48.204;16.202;2023-02-21T18:33:22;11.10;99.90
62991;DHT22;49084;48.204;16.202;2023-02-21T18:35:49;11.10;99.90
62991;DHT22;49084;48.204;16.202;2023-02-21T18:38:15;10.90;99.90